sensor_id;sensor_type;location;lat;lon;timestamp;P1;durP1;ratioP1;P2;durP2;ratioP2
76867;SDS011;66168;45.478;11.060;2023-02-22T00:00:25;81.90;;;41.80;;
76867;SDS011;66168;45.478;11.060;2023-02-22T00:03:14;75.20;;;36.70;;
76867;SDS011;66168;45.478;11.060;2023-02-22T00:05:44;75.40;;;39.40;;
76867;SDS011;66168;45.478;11.060;2023-02-22T00:08:13;79.80;;;38.80;;
76867;SDS011;66168;45.478;11.060;2023-02-22T00:10:41;90.00;;;43.70;;
76867;SDS011;66168;45.478;11.060;2023-02-22T00:13:09;84.70;;;41.80;;
76867;SDS011;66168;45.478;11.060;2023-02-22T00:15:39;86.50;;;43.50;;
76867;SDS011;66168;45.478;11.060;2023-02-22T00:18:07;78.70;;;42.90;;
76867;SDS011;66168;45.478;11.060;2023-02-22T00:20:36;77.50;;;41.20;;
76867;SDS011;66168;45.478;11.060;2023-02-22T00:23:06;89.60;;;43.20;;
76867;SDS011;66168;45.478;11.060;2023-02-22T00:25:35;77.40;;;38.30;;
76867;SDS011;66168;45.478;11.060;2023-02-22T00:28:02;79.40;;;42.80;;
76867;SDS011;66168;45.478;11.060;2023-02-22T00:30:30;83.10;;;42.30;;
76867;SDS011;66168;45.478;11.060;2023-02-22T00:32:59;79.50;;;40.50;;
76867;SDS011;66168;45.478;11.060;2023-02-22T00:35:27;81.30;;;40.80;;
76867;SDS011;66168;45.478;11.060;2023-02-22T00:37:59;77.80;;;37.70;;
76867;SDS011;66168;45.478;11.060;2023-02-22T00:40:31;83.00;;;41.10;;
76867;SDS011;66168;45.478;11.060;2023-02-22T00:43:00;86.70;;;41.90;;
76867;SDS011;66168;45.478;11.060;2023-02-22T00:45:30;75.20;;;40.50;;
76867;SDS011;66168;45.478;11.060;2023-02-22T00:47:59;85.50;;;42.00;;
76867;SDS011;66168;45.478;11.060;2023-02-22T00:50:27;75.70;;;38.50;;
76867;SDS011;66168;45.478;11.060;2023-02-22T00:52:56;85.60;;;41.40;;
76867;SDS011;66168;45.478;11.060;2023-02-22T00:55:25;85.20;;;42.10;;
76867;SDS011;66168;45.478;11.060;2023-02-22T00:57:54;69.60;;;35.10;;
76867;SDS011;66168;45.478;11.060;2023-02-22T01:00:25;78.40;;;40.30;;
76867;SDS011;66168;45.478;11.060;2023-02-22T01:02:56;76.70;;;40.40;;
76867;SDS011;66168;45.478;11.060;2023-02-22T01:05:24;73.30;;;39.10;;
76867;SDS011;66168;45.478;11.060;2023-02-22T01:07:54;85.50;;;44.10;;
76867;SDS011;66168;45.478;11.060;2023-02-22T01:10:24;78.40;;;38.60;;
76867;SDS011;66168;45.478;11.060;2023-02-22T01:12:52;75.50;;;40.30;;
76867;SDS011;66168;45.478;11.060;2023-02-22T01:15:20;82.80;;;41.60;;
76867;SDS011;66168;45.478;11.060;2023-02-22T01:17:49;79.80;;;39.80;;
76867;SDS011;66168;45.478;11.060;2023-02-22T01:20:20;75.50;;;38.00;;
76867;SDS011;66168;45.478;11.060;2023-02-22T01:22:49;79.30;;;42.30;;
76867;SDS011;66168;45.478;11.060;2023-02-22T01:25:18;83.80;;;41.00;;
76867;SDS011;66168;45.478;11.060;2023-02-22T01:27:46;78.30;;;39.50;;
76867;SDS011;66168;45.478;11.060;2023-02-22T01:30:16;72.10;;;36.10;;
76867;SDS011;66168;45.478;11.060;2023-02-22T01:32:49;80.40;;;39.40;;
76867;SDS011;66168;45.478;11.060;2023-02-22T01:35:17;86.20;;;42.00;;
76867;SDS011;66168;45.478;11.060;2023-02-22T01:37:49;81.10;;;42.50;;
76867;SDS011;66168;45.478;11.060;2023-02-22T01:40:21;85.90;;;42.50;;
76867;SDS011;66168;45.478;11.060;2023-02-22T01:42:54;87.30;;;42.80;;
76867;SDS011;66168;45.478;11.060;2023-02-22T01:48:01;80.30;;;41.50;;
76867;SDS011;66168;45.478;11.060;2023-02-22T01:50:32;66.30;;;36.20;;
76867;SDS011;66168;45.478;11.060;2023-02-22T01:53:02;88.50;;;42.90;;
76867;SDS011;66168;45.478;11.060;2023-02-22T01:55:31;74.30;;;38.00;;
76867;SDS011;66168;45.478;11.060;2023-02-22T01:58:01;71.10;;;36.50;;
76867;SDS011;66168;45.478;11.060;2023-02-22T02:00:30;67.40;;;34.30;;
76867;SDS011;66168;45.478;11.060;2023-02-22T02:03:01;84.40;;;42.70;;
76867;SDS011;66168;45.478;11.060;2023-02-22T02:05:33;87.40;;;43.20;;
76867;SDS011;66168;45.478;11.060;2023-02-22T02:08:07;89.70;;;44.10;;
76867;SDS011;66168;45.478;11.060;2023-02-22T02:13:09;81.90;;;41.70;;
76867;SDS011;66168;45.478;11.060;2023-02-22T02:15:36;83.00;;;41.00;;
76867;SDS011;66168;45.478;11.060;2023-02-22T02:18:04;79.50;;;40.70;;
76867;SDS011;66168;45.478;11.060;2023-02-22T02:32:51;90.80;;;43.10;;
76867;SDS011;66168;45.478;11.060;2023-02-22T02:35:34;87.20;;;44.10;;
76867;SDS011;66168;45.478;11.060;2023-02-22T02:41:34;74.00;;;36.80;;
76867;SDS011;66168;45.478;11.060;2023-02-22T02:46:37;80.20;;;44.80;;
76867;SDS011;66168;45.478;11.060;2023-02-22T02:49:14;83.80;;;43.10;;
76867;SDS011;66168;45.478;11.060;2023-02-22T02:51:47;83.70;;;44.00;;
76867;SDS011;66168;45.478;11.060;2023-02-22T02:54:19;76.70;;;39.90;;
76867;SDS011;66168;45.478;11.060;2023-02-22T02:56:50;76.50;;;41.10;;
76867;SDS011;66168;45.478;11.060;2023-02-22T03:07:54;79.00;;;38.20;;
76867;SDS011;66168;45.478;11.060;2023-02-22T03:13:09;81.00;;;41.50;;
76867;SDS011;66168;45.478;11.060;2023-02-22T03:18:17;87.50;;;44.00;;
76867;SDS011;66168;45.478;11.060;2023-02-22T03:24:09;89.20;;;42.80;;
76867;SDS011;66168;45.478;11.060;2023-02-22T03:27:08;83.00;;;40.80;;
76867;SDS011;66168;45.478;11.060;2023-02-22T03:29:49;79.60;;;41.10;;
76867;SDS011;66168;45.478;11.060;2023-02-22T03:32:20;75.50;;;39.90;;
76867;SDS011;66168;45.478;11.060;2023-02-22T03:34:57;73.70;;;37.20;;
76867;SDS011;66168;45.478;11.060;2023-02-22T03:37:28;78.20;;;41.70;;
76867;SDS011;66168;45.478;11.060;2023-02-22T03:39:59;81.70;;;41.30;;
76867;SDS011;66168;45.478;11.060;2023-02-22T03:42:44;82.20;;;41.50;;
76867;SDS011;66168;45.478;11.060;2023-02-22T03:45:17;82.60;;;41.60;;
76867;SDS011;66168;45.478;11.060;2023-02-22T03:47:50;89.60;;;43.00;;
76867;SDS011;66168;45.478;11.060;2023-02-22T03:50:28;80.00;;;40.90;;
76867;SDS011;66168;45.478;11.060;2023-02-22T03:53:01;86.70;;;45.20;;
76867;SDS011;66168;45.478;11.060;2023-02-22T03:55:30;86.50;;;44.20;;
76867;SDS011;66168;45.478;11.060;2023-02-22T03:57:58;88.10;;;43.90;;
76867;SDS011;66168;45.478;11.060;2023-02-22T04:00:31;74.80;;;38.90;;
76867;SDS011;66168;45.478;11.060;2023-02-22T04:02:59;69.70;;;37.60;;
76867;SDS011;66168;45.478;11.060;2023-02-22T04:05:27;74.10;;;37.30;;
76867;SDS011;66168;45.478;11.060;2023-02-22T04:07:55;73.90;;;40.50;;
76867;SDS011;66168;45.478;11.060;2023-02-22T04:10:23;74.40;;;38.60;;
76867;SDS011;66168;45.478;11.060;2023-02-22T04:12:51;79.90;;;39.30;;
76867;SDS011;66168;45.478;11.060;2023-02-22T04:15:22;79.50;;;41.40;;
76867;SDS011;66168;45.478;11.060;2023-02-22T04:17:53;83.10;;;41.00;;
76867;SDS011;66168;45.478;11.060;2023-02-22T04:20:21;84.70;;;43.40;;
76867;SDS011;66168;45.478;11.060;2023-02-22T04:22:56;77.80;;;41.70;;
76867;SDS011;66168;45.478;11.060;2023-02-22T04:25:23;81.60;;;40.30;;
76867;SDS011;66168;45.478;11.060;2023-02-22T04:27:50;82.90;;;43.00;;
76867;SDS011;66168;45.478;11.060;2023-02-22T04:30:22;72.70;;;37.60;;
76867;SDS011;66168;45.478;11.060;2023-02-22T04:32:50;78.20;;;42.00;;
76867;SDS011;66168;45.478;11.060;2023-02-22T04:35:19;77.60;;;39.10;;
76867;SDS011;66168;45.478;11.060;2023-02-22T04:37:46;81.10;;;41.80;;
76867;SDS011;66168;45.478;11.060;2023-02-22T04:40:14;82.20;;;42.30;;
76867;SDS011;66168;45.478;11.060;2023-02-22T04:42:45;73.00;;;38.30;;
76867;SDS011;66168;45.478;11.060;2023-02-22T04:45:12;73.40;;;37.70;;
76867;SDS011;66168;45.478;11.060;2023-02-22T04:47:39;77.40;;;39.60;;
76867;SDS011;66168;45.478;11.060;2023-02-22T04:50:08;77.00;;;40.00;;
76867;SDS011;66168;45.478;11.060;2023-02-22T04:52:36;77.20;;;39.80;;
76867;SDS011;66168;45.478;11.060;2023-02-22T04:55:04;75.30;;;39.10;;
76867;SDS011;66168;45.478;11.060;2023-02-22T04:57:34;79.20;;;40.60;;
76867;SDS011;66168;45.478;11.060;2023-02-22T05:00:01;72.80;;;35.80;;
76867;SDS011;66168;45.478;11.060;2023-02-22T05:02:30;69.60;;;33.60;;
76867;SDS011;66168;45.478;11.060;2023-02-22T05:04:56;80.60;;;40.10;;
76867;SDS011;66168;45.478;11.060;2023-02-22T05:07:23;76.30;;;40.30;;
76867;SDS011;66168;45.478;11.060;2023-02-22T05:09:50;79.20;;;39.80;;
76867;SDS011;66168;45.478;11.060;2023-02-22T05:12:16;78.20;;;39.10;;
76867;SDS011;66168;45.478;11.060;2023-02-22T05:14:43;79.80;;;40.60;;
76867;SDS011;66168;45.478;11.060;2023-02-22T05:17:10;71.50;;;37.50;;
76867;SDS011;66168;45.478;11.060;2023-02-22T05:19:36;70.80;;;37.10;;
76867;SDS011;66168;45.478;11.060;2023-02-22T05:22:03;74.00;;;36.70;;
76867;SDS011;66168;45.478;11.060;2023-02-22T05:24:31;76.30;;;39.90;;
76867;SDS011;66168;45.478;11.060;2023-02-22T05:26:58;80.50;;;41.60;;
76867;SDS011;66168;45.478;11.060;2023-02-22T05:29:24;77.80;;;39.80;;
76867;SDS011;66168;45.478;11.060;2023-02-22T05:31:51;81.90;;;42.80;;
76867;SDS011;66168;45.478;11.060;2023-02-22T05:34:18;84.00;;;41.80;;
76867;SDS011;66168;45.478;11.060;2023-02-22T05:36:45;77.10;;;39.60;;
76867;SDS011;66168;45.478;11.060;2023-02-22T05:39:11;75.30;;;42.30;;
76867;SDS011;66168;45.478;11.060;2023-02-22T05:41:38;91.90;;;41.70;;
76867;SDS011;66168;45.478;11.060;2023-02-22T05:44:05;78.70;;;39.80;;
76867;SDS011;66168;45.478;11.060;2023-02-22T05:46:31;79.30;;;41.40;;
76867;SDS011;66168;45.478;11.060;2023-02-22T05:48:58;74.30;;;41.30;;
76867;SDS011;66168;45.478;11.060;2023-02-22T05:51:25;81.30;;;43.80;;
76867;SDS011;66168;45.478;11.060;2023-02-22T05:53:52;77.30;;;40.30;;
76867;SDS011;66168;45.478;11.060;2023-02-22T05:56:19;78.20;;;40.80;;
76867;SDS011;66168;45.478;11.060;2023-02-22T05:58:50;81.20;;;41.30;;
76867;SDS011;66168;45.478;11.060;2023-02-22T06:01:16;91.60;;;43.50;;
76867;SDS011;66168;45.478;11.060;2023-02-22T06:03:47;88.60;;;43.00;;
76867;SDS011;66168;45.478;11.060;2023-02-22T06:06:16;84.90;;;43.10;;
76867;SDS011;66168;45.478;11.060;2023-02-22T06:08:45;90.50;;;45.00;;
76867;SDS011;66168;45.478;11.060;2023-02-22T06:11:12;80.10;;;42.60;;
76867;SDS011;66168;45.478;11.060;2023-02-22T06:13:39;74.80;;;39.60;;
76867;SDS011;66168;45.478;11.060;2023-02-22T06:16:06;78.90;;;40.30;;
76867;SDS011;66168;45.478;11.060;2023-02-22T06:18:33;77.70;;;42.80;;
76867;SDS011;66168;45.478;11.060;2023-02-22T06:21:00;81.10;;;41.40;;
76867;SDS011;66168;45.478;11.060;2023-02-22T06:23:27;76.70;;;40.00;;
76867;SDS011;66168;45.478;11.060;2023-02-22T06:25:54;79.30;;;42.30;;
76867;SDS011;66168;45.478;11.060;2023-02-22T06:28:20;85.90;;;40.60;;
76867;SDS011;66168;45.478;11.060;2023-02-22T06:30:49;82.90;;;43.40;;
76867;SDS011;66168;45.478;11.060;2023-02-22T06:33:15;83.10;;;42.10;;
76867;SDS011;66168;45.478;11.060;2023-02-22T06:35:42;81.80;;;41.50;;
76867;SDS011;66168;45.478;11.060;2023-02-22T06:38:10;84.40;;;42.00;;
76867;SDS011;66168;45.478;11.060;2023-02-22T06:40:37;84.00;;;40.10;;
76867;SDS011;66168;45.478;11.060;2023-02-22T06:43:03;80.80;;;42.40;;
76867;SDS011;66168;45.478;11.060;2023-02-22T06:45:30;85.60;;;42.50;;
76867;SDS011;66168;45.478;11.060;2023-02-22T06:47:57;86.50;;;44.40;;
76867;SDS011;66168;45.478;11.060;2023-02-22T06:50:25;84.30;;;44.40;;
76867;SDS011;66168;45.478;11.060;2023-02-22T06:52:54;81.60;;;41.60;;
76867;SDS011;66168;45.478;11.060;2023-02-22T06:55:23;91.20;;;43.80;;
76867;SDS011;66168;45.478;11.060;2023-02-22T06:57:51;87.70;;;43.70;;
76867;SDS011;66168;45.478;11.060;2023-02-22T07:00:20;87.50;;;45.40;;
76867;SDS011;66168;45.478;11.060;2023-02-22T07:02:49;82.40;;;42.80;;
76867;SDS011;66168;45.478;11.060;2023-02-22T07:05:17;90.80;;;45.50;;
76867;SDS011;66168;45.478;11.060;2023-02-22T07:07:49;88.80;;;44.30;;
76867;SDS011;66168;45.478;11.060;2023-02-22T07:10:24;88.70;;;44.50;;
76867;SDS011;66168;45.478;11.060;2023-02-22T07:12:53;83.60;;;42.30;;
76867;SDS011;66168;45.478;11.060;2023-02-22T07:15:21;71.50;;;40.20;;
76867;SDS011;66168;45.478;11.060;2023-02-22T07:17:49;91.80;;;45.00;;
76867;SDS011;66168;45.478;11.060;2023-02-22T07:20:17;90.70;;;42.70;;
76867;SDS011;66168;45.478;11.060;2023-02-22T07:22:46;85.00;;;41.80;;
76867;SDS011;66168;45.478;11.060;2023-02-22T07:25:13;88.00;;;44.30;;
76867;SDS011;66168;45.478;11.060;2023-02-22T07:27:41;84.10;;;44.40;;
76867;SDS011;66168;45.478;11.060;2023-02-22T07:32:44;78.70;;;42.40;;
76867;SDS011;66168;45.478;11.060;2023-02-22T07:35:20;87.30;;;45.70;;
76867;SDS011;66168;45.478;11.060;2023-02-22T07:37:52;81.90;;;42.90;;
76867;SDS011;66168;45.478;11.060;2023-02-22T07:40:21;86.80;;;44.50;;
76867;SDS011;66168;45.478;11.060;2023-02-22T07:42:56;84.80;;;43.70;;
76867;SDS011;66168;45.478;11.060;2023-02-22T07:45:47;80.90;;;42.40;;
76867;SDS011;66168;45.478;11.060;2023-02-22T07:48:15;78.80;;;40.70;;
76867;SDS011;66168;45.478;11.060;2023-02-22T07:50:43;91.80;;;46.40;;
76867;SDS011;66168;45.478;11.060;2023-02-22T07:53:12;81.40;;;41.90;;
76867;SDS011;66168;45.478;11.060;2023-02-22T07:55:43;83.00;;;44.20;;
76867;SDS011;66168;45.478;11.060;2023-02-22T07:58:14;80.10;;;40.50;;
76867;SDS011;66168;45.478;11.060;2023-02-22T08:00:41;83.10;;;43.60;;
76867;SDS011;66168;45.478;11.060;2023-02-22T08:03:13;82.00;;;43.20;;
76867;SDS011;66168;45.478;11.060;2023-02-22T08:05:43;95.30;;;48.10;;
76867;SDS011;66168;45.478;11.060;2023-02-22T08:08:12;82.40;;;41.70;;
76867;SDS011;66168;45.478;11.060;2023-02-22T08:10:45;90.50;;;46.90;;
76867;SDS011;66168;45.478;11.060;2023-02-22T08:13:12;88.40;;;45.10;;
76867;SDS011;66168;45.478;11.060;2023-02-22T08:15:40;101.50;;;49.60;;
76867;SDS011;66168;45.478;11.060;2023-02-22T08:18:15;89.40;;;47.30;;
76867;SDS011;66168;45.478;11.060;2023-02-22T08:20:44;73.70;;;38.60;;
76867;SDS011;66168;45.478;11.060;2023-02-22T08:23:12;76.70;;;40.40;;
76867;SDS011;66168;45.478;11.060;2023-02-22T08:25:40;83.40;;;42.20;;
76867;SDS011;66168;45.478;11.060;2023-02-22T08:28:08;88.80;;;43.90;;
76867;SDS011;66168;45.478;11.060;2023-02-22T08:30:40;89.40;;;47.10;;
76867;SDS011;66168;45.478;11.060;2023-02-22T08:33:09;80.30;;;38.60;;
76867;SDS011;66168;45.478;11.060;2023-02-22T08:35:40;88.30;;;43.70;;
76867;SDS011;66168;45.478;11.060;2023-02-22T08:38:07;87.50;;;44.80;;
76867;SDS011;66168;45.478;11.060;2023-02-22T08:40:40;77.30;;;40.10;;
76867;SDS011;66168;45.478;11.060;2023-02-22T08:43:07;75.00;;;36.80;;
76867;SDS011;66168;45.478;11.060;2023-02-22T08:45:34;66.80;;;31.80;;
76867;SDS011;66168;45.478;11.060;2023-02-22T08:48:00;60.70;;;32.60;;
76867;SDS011;66168;45.478;11.060;2023-02-22T08:50:29;60.60;;;31.50;;
76867;SDS011;66168;45.478;11.060;2023-02-22T08:52:59;68.10;;;33.80;;
76867;SDS011;66168;45.478;11.060;2023-02-22T08:55:29;88.70;;;44.20;;
76867;SDS011;66168;45.478;11.060;2023-02-22T08:57:58;101.70;;;50.50;;
76867;SDS011;66168;45.478;11.060;2023-02-22T09:00:28;87.50;;;45.70;;
76867;SDS011;66168;45.478;11.060;2023-02-22T09:03:04;100.30;;;48.70;;
76867;SDS011;66168;45.478;11.060;2023-02-22T09:05:41;82.60;;;42.40;;
76867;SDS011;66168;45.478;11.060;2023-02-22T09:08:08;93.90;;;49.60;;
76867;SDS011;66168;45.478;11.060;2023-02-22T09:10:35;98.20;;;48.30;;
76867;SDS011;66168;45.478;11.060;2023-02-22T09:13:02;71.10;;;33.80;;
76867;SDS011;66168;45.478;11.060;2023-02-22T09:15:30;74.00;;;38.70;;
76867;SDS011;66168;45.478;11.060;2023-02-22T09:17:58;83.00;;;43.40;;
76867;SDS011;66168;45.478;11.060;2023-02-22T09:20:25;81.20;;;40.60;;
76867;SDS011;66168;45.478;11.060;2023-02-22T09:22:53;71.80;;;33.10;;
76867;SDS011;66168;45.478;11.060;2023-02-22T09:25:21;82.10;;;41.80;;
76867;SDS011;66168;45.478;11.060;2023-02-22T09:27:49;87.40;;;44.60;;
76867;SDS011;66168;45.478;11.060;2023-02-22T09:30:24;77.40;;;38.90;;
76867;SDS011;66168;45.478;11.060;2023-02-22T09:33:04;61.80;;;30.30;;
76867;SDS011;66168;45.478;11.060;2023-02-22T09:35:35;62.20;;;31.20;;
76867;SDS011;66168;45.478;11.060;2023-02-22T09:38:03;68.30;;;31.90;;
76867;SDS011;66168;45.478;11.060;2023-02-22T09:40:34;52.90;;;28.00;;
76867;SDS011;66168;45.478;11.060;2023-02-22T09:46:17;58.70;;;28.00;;
76867;SDS011;66168;45.478;11.060;2023-02-22T09:51:49;63.00;;;29.10;;
76867;SDS011;66168;45.478;11.060;2023-02-22T09:54:28;44.40;;;20.50;;
76867;SDS011;66168;45.478;11.060;2023-02-22T09:57:14;69.50;;;33.50;;
76867;SDS011;66168;45.478;11.060;2023-02-22T10:00:05;72.40;;;35.20;;
76867;SDS011;66168;45.478;11.060;2023-02-22T10:03:25;51.00;;;25.60;;
76867;SDS011;66168;45.478;11.060;2023-02-22T10:05:37;71.10;;;33.30;;
76867;SDS011;66168;45.478;11.060;2023-02-22T10:08:11;70.10;;;31.60;;
76867;SDS011;66168;45.478;11.060;2023-02-22T10:10:40;60.80;;;28.00;;
76867;SDS011;66168;45.478;11.060;2023-02-22T10:13:24;51.50;;;23.60;;
76867;SDS011;66168;45.478;11.060;2023-02-22T10:19:02;61.00;;;30.00;;
76867;SDS011;66168;45.478;11.060;2023-02-22T10:26:57;64.30;;;31.40;;
76867;SDS011;66168;45.478;11.060;2023-02-22T10:29:45;48.10;;;24.20;;
76867;SDS011;66168;45.478;11.060;2023-02-22T10:32:23;57.80;;;29.80;;
76867;SDS011;66168;45.478;11.060;2023-02-22T10:34:54;50.10;;;24.20;;
76867;SDS011;66168;45.478;11.060;2023-02-22T10:37:30;70.50;;;34.20;;
76867;SDS011;66168;45.478;11.060;2023-02-22T10:40:12;67.20;;;33.30;;
76867;SDS011;66168;45.478;11.060;2023-02-22T10:42:48;77.90;;;36.90;;
76867;SDS011;66168;45.478;11.060;2023-02-22T10:45:21;57.30;;;26.00;;
76867;SDS011;66168;45.478;11.060;2023-02-22T10:47:53;58.70;;;26.90;;
76867;SDS011;66168;45.478;11.060;2023-02-22T10:50:21;61.50;;;30.90;;
76867;SDS011;66168;45.478;11.060;2023-02-22T10:52:48;66.90;;;29.30;;
76867;SDS011;66168;45.478;11.060;2023-02-22T10:55:15;63.80;;;32.30;;
76867;SDS011;66168;45.478;11.060;2023-02-22T10:57:46;56.80;;;27.80;;
76867;SDS011;66168;45.478;11.060;2023-02-22T11:02:56;50.20;;;22.60;;
76867;SDS011;66168;45.478;11.060;2023-02-22T11:08:14;50.10;;;24.40;;
76867;SDS011;66168;45.478;11.060;2023-02-22T11:10:56;53.90;;;26.50;;
76867;SDS011;66168;45.478;11.060;2023-02-22T11:16:16;53.40;;;26.40;;
76867;SDS011;66168;45.478;11.060;2023-02-22T11:18:48;67.00;;;32.10;;
76867;SDS011;66168;45.478;11.060;2023-02-22T11:21:19;60.90;;;30.30;;
76867;SDS011;66168;45.478;11.060;2023-02-22T11:23:48;60.60;;;29.80;;
76867;SDS011;66168;45.478;11.060;2023-02-22T11:28:54;64.70;;;32.30;;
76867;SDS011;66168;45.478;11.060;2023-02-22T11:31:23;66.90;;;32.30;;
76867;SDS011;66168;45.478;11.060;2023-02-22T11:36:34;61.50;;;31.40;;
76867;SDS011;66168;45.478;11.060;2023-02-22T11:39:23;39.40;;;19.00;;
76867;SDS011;66168;45.478;11.060;2023-02-22T11:41:54;65.90;;;31.90;;
76867;SDS011;66168;45.478;11.060;2023-02-22T11:44:29;43.20;;;21.80;;
76867;SDS011;66168;45.478;11.060;2023-02-22T11:46:59;66.10;;;32.30;;
76867;SDS011;66168;45.478;11.060;2023-02-22T11:49:33;63.70;;;31.10;;
76867;SDS011;66168;45.478;11.060;2023-02-22T12:00:01;55.90;;;27.10;;
76867;SDS011;66168;45.478;11.060;2023-02-22T12:02:48;44.60;;;21.00;;
76867;SDS011;66168;45.478;11.060;2023-02-22T12:05:38;61.00;;;30.60;;
76867;SDS011;66168;45.478;11.060;2023-02-22T12:11:07;59.40;;;28.40;;
76867;SDS011;66168;45.478;11.060;2023-02-22T12:19:45;55.90;;;26.80;;
76867;SDS011;66168;45.478;11.060;2023-02-22T12:24:59;73.10;;;37.50;;
76867;SDS011;66168;45.478;11.060;2023-02-22T12:27:37;68.60;;;32.30;;
76867;SDS011;66168;45.478;11.060;2023-02-22T12:30:22;47.20;;;23.80;;
76867;SDS011;66168;45.478;11.060;2023-02-22T12:32:56;71.80;;;34.40;;
76867;SDS011;66168;45.478;11.060;2023-02-22T12:35:26;65.00;;;29.30;;
76867;SDS011;66168;45.478;11.060;2023-02-22T12:37:58;62.70;;;28.60;;
76867;SDS011;66168;45.478;11.060;2023-02-22T12:40:32;69.80;;;33.80;;
76867;SDS011;66168;45.478;11.060;2023-02-22T12:49:13;67.60;;;35.80;;
76867;SDS011;66168;45.478;11.060;2023-02-22T12:54:50;64.20;;;31.40;;
76867;SDS011;66168;45.478;11.060;2023-02-22T12:57:34;73.50;;;37.90;;
76867;SDS011;66168;45.478;11.060;2023-02-22T13:00:14;73.30;;;37.50;;
76867;SDS011;66168;45.478;11.060;2023-02-22T13:02:59;61.30;;;31.00;;
76867;SDS011;66168;45.478;11.060;2023-02-22T13:05:33;60.30;;;28.60;;
76867;SDS011;66168;45.478;11.060;2023-02-22T13:16:25;83.30;;;39.10;;
76867;SDS011;66168;45.478;11.060;2023-02-22T13:19:23;49.40;;;24.10;;
76867;SDS011;66168;45.478;11.060;2023-02-22T13:24:55;69.20;;;33.30;;
76867;SDS011;66168;45.478;11.060;2023-02-22T13:27:27;71.10;;;35.00;;
76867;SDS011;66168;45.478;11.060;2023-02-22T13:29:58;64.60;;;30.20;;
76867;SDS011;66168;45.478;11.060;2023-02-22T13:40:57;59.50;;;28.70;;
76867;SDS011;66168;45.478;11.060;2023-02-22T13:43:39;68.90;;;33.00;;
76867;SDS011;66168;45.478;11.060;2023-02-22T13:51:51;56.00;;;25.80;;
76867;SDS011;66168;45.478;11.060;2023-02-22T13:57:03;64.80;;;31.00;;
76867;SDS011;66168;45.478;11.060;2023-02-22T13:59:42;68.10;;;34.10;;
76867;SDS011;66168;45.478;11.060;2023-02-22T14:05:33;62.10;;;26.80;;
76867;SDS011;66168;45.478;11.060;2023-02-22T14:10:46;72.10;;;33.30;;
76867;SDS011;66168;45.478;11.060;2023-02-22T14:13:28;62.40;;;28.90;;
76867;SDS011;66168;45.478;11.060;2023-02-22T14:21:09;69.20;;;35.10;;
76867;SDS011;66168;45.478;11.060;2023-02-22T14:23:37;69.80;;;33.90;;
76867;SDS011;66168;45.478;11.060;2023-02-22T14:26:13;74.30;;;36.40;;
76867;SDS011;66168;45.478;11.060;2023-02-22T14:28:49;53.50;;;27.60;;
76867;SDS011;66168;45.478;11.060;2023-02-22T14:31:17;62.00;;;29.80;;
76867;SDS011;66168;45.478;11.060;2023-02-22T14:34:06;56.80;;;27.20;;
76867;SDS011;66168;45.478;11.060;2023-02-22T14:47:47;53.90;;;27.00;;
76867;SDS011;66168;45.478;11.060;2023-02-22T14:53:48;41.00;;;20.90;;
76867;SDS011;66168;45.478;11.060;2023-02-22T15:01:34;61.80;;;27.20;;
76867;SDS011;66168;45.478;11.060;2023-02-22T15:04:25;63.20;;;30.60;;
76867;SDS011;66168;45.478;11.060;2023-02-22T15:06:57;67.00;;;32.00;;
76867;SDS011;66168;45.478;11.060;2023-02-22T15:09:30;60.20;;;26.90;;
76867;SDS011;66168;45.478;11.060;2023-02-22T15:14:30;69.40;;;35.10;;
76867;SDS011;66168;45.478;11.060;2023-02-22T15:17:06;64.50;;;32.10;;
76867;SDS011;66168;45.478;11.060;2023-02-22T15:19:36;62.20;;;29.70;;
76867;SDS011;66168;45.478;11.060;2023-02-22T15:22:05;74.30;;;34.60;;
76867;SDS011;66168;45.478;11.060;2023-02-22T15:24:47;70.50;;;32.00;;
76867;SDS011;66168;45.478;11.060;2023-02-22T15:27:24;62.90;;;31.50;;
76867;SDS011;66168;45.478;11.060;2023-02-22T15:29:56;44.80;;;22.50;;
76867;SDS011;66168;45.478;11.060;2023-02-22T15:32:30;68.20;;;34.90;;
76867;SDS011;66168;45.478;11.060;2023-02-22T15:35:26;61.40;;;30.50;;
76867;SDS011;66168;45.478;11.060;2023-02-22T15:37:59;59.50;;;28.40;;
76867;SDS011;66168;45.478;11.060;2023-02-22T15:40:28;73.10;;;33.70;;
76867;SDS011;66168;45.478;11.060;2023-02-22T15:43:05;62.40;;;29.40;;
76867;SDS011;66168;45.478;11.060;2023-02-22T15:45:39;57.40;;;27.20;;
76867;SDS011;66168;45.478;11.060;2023-02-22T15:48:09;68.10;;;33.10;;
76867;SDS011;66168;45.478;11.060;2023-02-22T15:50:37;64.40;;;31.40;;
76867;SDS011;66168;45.478;11.060;2023-02-22T15:53:05;60.70;;;30.90;;
76867;SDS011;66168;45.478;11.060;2023-02-22T15:55:44;63.00;;;32.00;;
76867;SDS011;66168;45.478;11.060;2023-02-22T16:00:42;67.60;;;31.60;;
76867;SDS011;66168;45.478;11.060;2023-02-22T16:03:13;66.80;;;30.60;;
76867;SDS011;66168;45.478;11.060;2023-02-22T16:05:49;66.30;;;30.80;;
76867;SDS011;66168;45.478;11.060;2023-02-22T16:08:22;68.60;;;32.50;;
76867;SDS011;66168;45.478;11.060;2023-02-22T16:10:59;60.80;;;29.30;;
76867;SDS011;66168;45.478;11.060;2023-02-22T16:13:31;64.60;;;32.00;;
76867;SDS011;66168;45.478;11.060;2023-02-22T16:16:04;55.50;;;28.90;;
76867;SDS011;66168;45.478;11.060;2023-02-22T16:18:48;69.10;;;31.70;;
76867;SDS011;66168;45.478;11.060;2023-02-22T16:21:20;70.10;;;33.50;;
76867;SDS011;66168;45.478;11.060;2023-02-22T16:23:54;59.80;;;28.70;;
76867;SDS011;66168;45.478;11.060;2023-02-22T16:26:39;64.80;;;31.30;;
76867;SDS011;66168;45.478;11.060;2023-02-22T16:29:07;65.10;;;31.50;;
76867;SDS011;66168;45.478;11.060;2023-02-22T16:31:36;68.10;;;32.20;;
76867;SDS011;66168;45.478;11.060;2023-02-22T16:34:05;67.90;;;31.70;;
76867;SDS011;66168;45.478;11.060;2023-02-22T16:39:06;62.30;;;32.00;;
76867;SDS011;66168;45.478;11.060;2023-02-22T16:41:34;62.40;;;31.30;;
76867;SDS011;66168;45.478;11.060;2023-02-22T16:44:01;68.30;;;33.60;;
76867;SDS011;66168;45.478;11.060;2023-02-22T16:46:28;72.40;;;34.30;;
76867;SDS011;66168;45.478;11.060;2023-02-22T16:48:55;68.10;;;33.60;;
76867;SDS011;66168;45.478;11.060;2023-02-22T16:51:25;77.20;;;34.30;;
76867;SDS011;66168;45.478;11.060;2023-02-22T16:53:54;59.70;;;32.50;;
76867;SDS011;66168;45.478;11.060;2023-02-22T16:56:23;75.80;;;34.60;;
76867;SDS011;66168;45.478;11.060;2023-02-22T16:58:56;69.00;;;33.20;;
76867;SDS011;66168;45.478;11.060;2023-02-22T17:01:26;73.90;;;36.00;;
76867;SDS011;66168;45.478;11.060;2023-02-22T17:03:53;72.10;;;36.70;;
76867;SDS011;66168;45.478;11.060;2023-02-22T17:06:20;75.70;;;36.80;;
76867;SDS011;66168;45.478;11.060;2023-02-22T17:08:47;70.50;;;34.50;;
76867;SDS011;66168;45.478;11.060;2023-02-22T17:11:17;69.90;;;34.70;;
76867;SDS011;66168;45.478;11.060;2023-02-22T17:13:44;73.00;;;34.60;;
76867;SDS011;66168;45.478;11.060;2023-02-22T17:16:12;72.50;;;34.90;;
76867;SDS011;66168;45.478;11.060;2023-02-22T17:18:43;78.50;;;37.70;;